createdAt,value
2023-03-03T00:02:01.978Z,22.13
2023-03-03T00:05:05.854Z,19.17
2023-03-03T00:08:11.439Z,20.23
2023-03-03T00:11:15.014Z,20.57
2023-03-03T00:14:25.312Z,21.93
2023-03-03T00:17:32.164Z,21.20
2023-03-03T00:20:39.992Z,19.60
2023-03-03T00:23:44.540Z,20.87
2023-03-03T00:26:50.644Z,20.97
2023-03-03T00:29:57.656Z,19.17
2023-03-03T00:33:00.766Z,20.60
2023-03-03T00:36:31.949Z,19.70
2023-03-03T00:39:39.469Z,18.27
2023-03-03T00:42:51.536Z,19.87
2023-03-03T00:45:56.210Z,20.73
2023-03-03T00:48:59.908Z,20.53
2023-03-03T00:52:03.831Z,19.93
2023-03-03T00:55:09.665Z,19.63
2023-03-03T00:58:13.473Z,19.83
2023-03-03T01:01:20.774Z,20.87
2023-03-03T01:04:28.476Z,20.30
2023-03-03T01:07:31.707Z,20.37
2023-03-03T01:10:40.748Z,22.07
2023-03-03T01:13:47.373Z,20.50
2023-03-03T01:16:51.045Z,19.90
2023-03-03T01:19:54.568Z,20.97
2023-03-03T01:22:57.691Z,21.80
2023-03-03T01:26:02.136Z,20.63
2023-03-03T01:29:05.217Z,21.63
2023-03-03T01:32:08.881Z,21.47
2023-03-03T01:35:11.950Z,20.27
2023-03-03T01:38:18.192Z,21.10
2023-03-03T01:41:23.160Z,22.20
2023-03-03T01:44:26.468Z,22.00
2023-03-03T01:47:34.927Z,21.77
2023-03-03T01:50:47.078Z,22.93
2023-03-03T01:53:55.222Z,20.97
2023-03-03T01:57:04.303Z,24.10
2023-03-03T02:00:10.130Z,25.20
2023-03-03T02:03:16.099Z,21.93
2023-03-03T02:06:24.118Z,22.10
2023-03-03T02:09:36.564Z,22.10
2023-03-03T02:12:49.838Z,23.03
2023-03-03T02:15:54.313Z,21.33
2023-03-03T02:18:57.836Z,21.53
2023-03-03T02:22:03.131Z,22.20
2023-03-03T02:25:12.771Z,21.53
2023-03-03T02:28:17.525Z,23.03
2023-03-03T02:31:23.490Z,23.00
2023-03-03T02:34:27.132Z,22.77
2023-03-03T02:37:30.730Z,22.93
2023-03-03T02:40:38.986Z,21.77
2023-03-03T02:43:53.125Z,23.13
2023-03-03T02:46:58.285Z,24.17
2023-03-03T02:50:01.555Z,23.93
2023-03-03T02:53:04.925Z,25.03
2023-03-03T02:56:09.865Z,24.57
2023-03-03T02:59:17.935Z,24.87
2023-03-03T03:02:25.004Z,25.60
2023-03-03T03:05:29.123Z,26.43
2023-03-03T03:08:33.381Z,27.10
2023-03-03T03:11:38.058Z,27.63
2023-03-03T03:14:43.380Z,26.70
2023-03-03T03:17:46.825Z,28.73
2023-03-03T03:20:50.160Z,26.57
2023-03-03T03:23:53.289Z,27.83
2023-03-03T03:26:57.346Z,27.53
2023-03-03T03:30:03.665Z,27.13
2023-03-03T03:33:08.379Z,25.80
2023-03-03T03:36:12.431Z,25.90
2023-03-03T03:39:17.007Z,28.37
2023-03-03T03:42:23.259Z,25.60
2023-03-03T03:45:28.200Z,26.03
2023-03-03T03:48:31.477Z,25.57
2023-03-03T03:51:38.205Z,25.63
2023-03-03T03:54:41.596Z,23.40
2023-03-03T03:57:45.595Z,27.57
2023-03-03T04:00:50.277Z,25.13
2023-03-03T04:03:54.322Z,27.23
2023-03-03T04:07:00.774Z,25.97
2023-03-03T04:10:04.233Z,24.23
2023-03-03T04:13:07.313Z,23.97
2023-03-03T04:16:13.036Z,23.97
2023-03-03T04:19:18.669Z,23.70
2023-03-03T04:22:21.888Z,23.20
2023-03-03T04:25:25.922Z,22.70
2023-03-03T04:28:30.721Z,23.70
2023-03-03T04:31:36.641Z,24.30
2023-03-03T04:34:41.530Z,22.73
2023-03-03T04:37:45.324Z,25.40
2023-03-03T04:40:49.084Z,25.87
2023-03-03T04:43:53.822Z,26.90
2023-03-03T04:46:58.206Z,27.73
2023-03-03T04:50:01.794Z,27.77
2023-03-03T04:53:07.833Z,30.53
2023-03-03T04:56:11.104Z,27.50
2023-03-03T04:59:14.650Z,28.43
2023-03-03T05:02:19.931Z,26.73
2023-03-03T05:05:24.096Z,27.70
2023-03-03T05:08:27.129Z,26.70
2023-03-03T05:11:30.545Z,25.57
2023-03-03T05:14:33.840Z,24.80
2023-03-03T05:17:38.176Z,25.53
2023-03-03T05:20:41.949Z,26.30
2023-03-03T05:23:44.946Z,23.13
2023-03-03T05:26:47.979Z,26.27
2023-03-03T05:29:51.338Z,25.43
2023-03-03T05:32:55.660Z,28.23
2023-03-03T05:35:59.439Z,26.90
2023-03-03T05:39:02.446Z,26.63
2023-03-03T05:42:05.870Z,30.90
2023-03-03T05:45:10.372Z,31.33
2023-03-03T05:48:14.926Z,29.30
2023-03-03T05:51:17.940Z,29.23
2023-03-03T05:54:21.088Z,29.50
2023-03-03T05:57:24.973Z,28.43
2023-03-03T06:00:28.088Z,30.07
2023-03-03T06:03:33.367Z,30.53
2023-03-03T06:06:37.052Z,34.10
2023-03-03T06:09:40.242Z,30.40
2023-03-03T06:12:43.309Z,31.60
2023-03-03T06:15:46.365Z,33.37
2023-03-03T06:18:50.694Z,33.47
2023-03-03T06:21:53.880Z,32.33
2023-03-03T06:24:56.893Z,32.40
2023-03-03T06:27:59.944Z,32.13
2023-03-03T06:31:02.985Z,31.37
2023-03-03T06:34:07.995Z,30.80
2023-03-03T06:37:11.168Z,31.63
2023-03-03T06:40:16.205Z,31.27
2023-03-03T06:43:19.201Z,31.23
2023-03-03T06:46:22.808Z,28.10
2023-03-03T06:49:27.191Z,28.57
2023-03-03T06:52:30.230Z,27.30
2023-03-03T06:55:33.936Z,27.60
2023-03-03T06:58:36.947Z,29.73
2023-03-03T07:01:40.460Z,29.73
2023-03-03T07:04:45.544Z,29.30
2023-03-03T07:07:49.015Z,27.60
2023-03-03T07:10:53.852Z,30.50
2023-03-03T07:13:57.715Z,29.43
2023-03-03T07:17:02.632Z,28.60
2023-03-03T07:20:20.725Z,29.50
2023-03-03T07:23:26.964Z,28.87
2023-03-03T07:26:33.034Z,31.27
2023-03-03T07:29:41.234Z,32.13
2023-03-03T07:32:46.430Z,32.67
2023-03-03T07:35:51.275Z,33.67
2023-03-03T07:38:56.309Z,30.43
2023-03-03T07:42:19.245Z,29.27
2023-03-03T07:45:29.911Z,31.03
2023-03-03T07:48:37.832Z,30.63
2023-03-03T07:51:42.558Z,31.97
2023-03-03T07:54:47.347Z,33.57
2023-03-03T07:57:53.402Z,32.10
2023-03-03T08:01:30.564Z,33.17
2023-03-03T08:04:40.774Z,33.10
2023-03-03T08:07:45.133Z,32.83
2023-03-03T08:10:50.712Z,33.23
2023-03-03T08:13:53.878Z,31.17
2023-03-03T08:16:59.816Z,33.90
2023-03-03T08:20:26.743Z,33.13
2023-03-03T08:23:31.536Z,31.50
2023-03-03T08:26:34.684Z,35.10
2023-03-03T08:29:37.680Z,34.00
2023-03-03T08:32:40.758Z,30.23
2023-03-03T08:35:44.632Z,31.37
2023-03-03T08:38:49.354Z,30.23
2023-03-03T08:41:52.768Z,31.27
2023-03-03T08:44:55.804Z,36.83
2023-03-03T08:47:59.839Z,37.90
2023-03-03T08:51:02.969Z,36.07
2023-03-03T08:54:07.288Z,35.77
2023-03-03T08:57:10.253Z,31.47
2023-03-03T09:00:17.382Z,29.07
2023-03-03T09:03:20.511Z,25.83
2023-03-03T09:06:23.670Z,23.33
2023-03-03T09:09:28.619Z,25.53
2023-03-03T09:12:36.497Z,26.43
2023-03-03T09:15:40.363Z,28.60
2023-03-03T09:18:45.288Z,29.20
2023-03-03T09:21:48.368Z,27.00
2023-03-03T09:24:55.714Z,27.83
2023-03-03T09:27:59.085Z,26.87
2023-03-03T09:31:07.384Z,29.10
2023-03-03T09:34:22.838Z,28.03
2023-03-03T09:37:32.374Z,28.93
2023-03-03T09:40:54.277Z,28.13
2023-03-03T09:44:19.481Z,30.47
2023-03-03T09:47:36.370Z,33.17
2023-03-03T09:50:50.475Z,31.97
2023-03-03T09:54:10.871Z,32.63
2023-03-03T09:57:18.802Z,30.83
2023-03-03T10:00:38.211Z,29.73
2023-03-03T10:04:06.196Z,27.17
2023-03-03T10:07:27.556Z,26.47
2023-03-03T10:10:54.813Z,25.50
2023-03-03T10:14:40.289Z,25.63
2023-03-03T10:17:52.913Z,32.00
2023-03-03T10:21:07.017Z,31.70
2023-03-03T10:24:27.761Z,31.67
2023-03-03T10:27:48.439Z,29.97
2023-03-03T10:31:10.695Z,30.93
2023-03-03T10:34:46.064Z,29.90
2023-03-03T10:38:04.591Z,25.90
2023-03-03T10:41:28.291Z,21.40
2023-03-03T10:45:03.107Z,25.30
2023-03-03T10:48:25.503Z,24.30
2023-03-03T10:51:35.269Z,23.77
2023-03-03T10:55:00.872Z,23.47
2023-03-03T10:58:38.185Z,28.90
2023-03-03T11:01:50.847Z,29.03
2023-03-03T11:05:17.292Z,28.70
2023-03-03T11:08:28.621Z,24.63
2023-03-03T11:11:41.525Z,22.97
2023-03-03T11:14:50.985Z,22.33
2023-03-03T11:18:16.878Z,23.10
2023-03-03T11:21:27.854Z,23.93
2023-03-03T11:25:02.337Z,29.90
2023-03-03T11:28:24.301Z,30.83
2023-03-03T11:31:34.813Z,31.77
2023-03-03T11:34:56.731Z,29.73
2023-03-03T11:38:25.542Z,25.17
2023-03-03T11:41:36.249Z,28.13
2023-03-03T11:44:43.182Z,29.73
2023-03-03T11:47:56.040Z,30.83
2023-03-03T11:51:04.608Z,28.33
2023-03-03T11:54:18.934Z,31.63
2023-03-03T11:57:27.932Z,34.43
2023-03-03T12:00:38.950Z,32.70
2023-03-03T12:03:46.437Z,33.03
2023-03-03T12:07:18.527Z,35.90
2023-03-03T12:10:32.525Z,35.80
2023-03-03T12:13:50.720Z,36.83
2023-03-03T12:16:58.679Z,34.97
2023-03-03T12:20:10.914Z,33.07
2023-03-03T12:23:35.432Z,33.90
2023-03-03T12:26:48.669Z,32.13
2023-03-03T12:30:05.065Z,25.63
2023-03-03T12:33:22.565Z,26.90
2023-03-03T12:36:51.895Z,27.27
2023-03-03T12:40:08.806Z,26.50
2023-03-03T12:43:34.248Z,24.53
2023-03-03T12:46:53.090Z,21.33
2023-03-03T12:50:14.647Z,22.47
2023-03-03T12:53:34.904Z,24.17
2023-03-03T12:56:43.676Z,22.10
2023-03-03T13:00:05.382Z,22.53
2023-03-03T13:03:28.346Z,22.87
2023-03-03T13:06:41.336Z,23.80
2023-03-03T13:10:05.646Z,24.73
2023-03-03T13:13:16.859Z,25.43
2023-03-03T13:16:40.759Z,29.13
2023-03-03T13:19:50.495Z,26.20
2023-03-03T13:23:00.956Z,26.60
2023-03-03T13:26:11.720Z,26.57
2023-03-03T13:29:22.142Z,23.90
2023-03-03T13:32:37.510Z,23.83
2023-03-03T13:35:46.645Z,23.27
2023-03-03T13:38:54.685Z,32.10
2023-03-03T13:42:03.494Z,32.53
2023-03-03T13:45:19.144Z,31.07
2023-03-03T13:48:39.054Z,31.80
2023-03-03T13:51:49.869Z,31.63
2023-03-03T13:55:11.792Z,32.10
2023-03-03T13:58:24.175Z,30.70
2023-03-03T14:01:43.217Z,31.20
2023-03-03T14:04:54.872Z,28.57
2023-03-03T14:08:01.335Z,23.23
2023-03-03T14:11:12.635Z,22.37
2023-03-03T14:14:37.268Z,25.20
2023-03-03T14:17:57.790Z,25.00
2023-03-03T14:21:10.566Z,26.47
2023-03-03T14:24:19.105Z,32.30
2023-03-03T14:27:26.787Z,31.57
2023-03-03T14:30:44.450Z,30.03
2023-03-03T14:33:59.684Z,29.20
2023-03-03T14:37:25.498Z,30.00
2023-03-03T14:40:33.397Z,27.80
2023-03-03T14:43:39.652Z,22.50
2023-03-03T14:46:42.800Z,23.23
2023-03-03T14:49:46.076Z,24.77
2023-03-03T14:53:11.620Z,23.50
2023-03-03T14:56:25.387Z,22.30
2023-03-03T14:59:29.250Z,18.50
2023-03-03T15:02:39.608Z,20.57
2023-03-03T15:05:50.794Z,20.50
2023-03-03T15:08:55.658Z,21.00
2023-03-03T15:12:00.452Z,19.10
2023-03-03T15:15:18.872Z,18.67
2023-03-03T15:18:21.921Z,17.70
2023-03-03T15:21:32.502Z,18.93
2023-03-03T15:24:42.376Z,18.67
2023-03-03T15:27:50.345Z,21.47
2023-03-03T15:31:01.221Z,18.90
2023-03-03T15:34:21.955Z,18.10
2023-03-03T15:37:41.186Z,18.30
2023-03-03T15:40:51.209Z,17.97
2023-03-03T15:44:10.842Z,17.73
2023-03-03T15:47:33.326Z,16.67
2023-03-03T15:50:46.250Z,17.87
2023-03-03T15:54:15.173Z,14.90
2023-03-03T15:57:33.899Z,17.40
2023-03-03T16:00:46.527Z,16.63
2023-03-03T16:03:56.180Z,17.27
2023-03-03T16:07:07.467Z,18.10
2023-03-03T16:10:22.814Z,18.23
2023-03-03T16:13:45.470Z,15.77
2023-03-03T16:16:55.631Z,17.20
2023-03-03T16:20:14.953Z,18.63
2023-03-03T16:23:28.739Z,18.37
2023-03-03T16:26:44.897Z,16.83
2023-03-03T16:30:05.361Z,16.47
2023-03-03T16:33:22.473Z,16.90
2023-03-03T16:36:33.591Z,18.03
2023-03-03T16:39:53.723Z,18.83
2023-03-03T16:43:07.263Z,19.77
2023-03-03T16:46:26.562Z,17.40
2023-03-03T16:49:38.525Z,19.43
2023-03-03T16:52:49.289Z,17.20
2023-03-03T16:56:04.242Z,17.63
2023-03-03T16:59:28.421Z,19.07
2023-03-03T17:02:55.648Z,20.40
2023-03-03T17:06:05.830Z,18.67
2023-03-03T17:09:47.312Z,18.47
2023-03-03T17:13:30.809Z,19.80
2023-03-03T17:16:52.427Z,19.10
2023-03-03T17:20:15.334Z,19.40
2023-03-03T17:23:44.059Z,18.50
2023-03-03T17:27:13.176Z,19.63
2023-03-03T17:30:22.548Z,18.17
2023-03-03T17:33:43.350Z,19.07
2023-03-03T17:37:00.094Z,19.70
2023-03-03T17:40:18.373Z,18.93
2023-03-03T17:43:26.780Z,17.87
2023-03-03T17:46:36.629Z,18.97
2023-03-03T17:50:06.908Z,18.10
2023-03-03T17:53:32.904Z,19.43
2023-03-03T17:56:45.684Z,19.83
2023-03-03T18:00:08.077Z,19.27
2023-03-03T18:03:53.270Z,18.87
2023-03-03T18:07:29.498Z,18.83
2023-03-03T18:11:04.069Z,21.23
2023-03-03T18:14:44.314Z,19.33
2023-03-03T18:18:03.508Z,18.97
2023-03-03T18:21:11.603Z,18.10
2023-03-03T18:24:37.594Z,18.40
2023-03-03T18:27:43.213Z,17.17
2023-03-03T18:30:59.372Z,17.30
2023-03-03T18:34:09.592Z,17.33
2023-03-03T18:37:40.942Z,19.77
2023-03-03T18:40:52.210Z,19.23
2023-03-03T18:43:59.325Z,17.97
2023-03-03T18:47:02.923Z,18.13
2023-03-03T18:50:17.625Z,19.23
2023-03-03T18:53:26.068Z,20.53
2023-03-03T18:56:46.323Z,19.67
2023-03-03T18:59:59.528Z,18.53
2023-03-03T19:03:02.570Z,18.40
2023-03-03T19:06:08.656Z,18.77
2023-03-03T19:09:21.030Z,19.93
2023-03-03T19:12:51.565Z,18.67
2023-03-03T19:15:59.648Z,19.13
2023-03-03T19:19:09.882Z,20.73
2023-03-03T19:22:26.573Z,19.33
2023-03-03T19:25:32.701Z,19.63
2023-03-03T19:28:39.977Z,19.67
2023-03-03T19:31:51.333Z,18.33
2023-03-03T19:35:03.559Z,21.10
2023-03-03T19:38:23.175Z,20.30
2023-03-03T19:41:54.601Z,19.77
2023-03-03T19:45:12.723Z,19.80
2023-03-03T19:48:25.952Z,18.77
2023-03-03T19:51:36.514Z,19.43
2023-03-03T19:54:54.834Z,19.00
2023-03-03T19:58:22.343Z,20.63
2023-03-03T20:01:32.414Z,19.63
2023-03-03T20:05:02.430Z,19.67
2023-03-03T20:08:14.871Z,19.03
2023-03-03T20:11:37.856Z,19.43
2023-03-03T20:14:49.200Z,19.70
2023-03-03T20:18:24.714Z,19.50
2023-03-03T20:21:34.851Z,20.10
2023-03-03T20:24:55.799Z,18.77
2023-03-03T20:28:07.680Z,19.50
2023-03-03T20:31:19.491Z,19.43
2023-03-03T20:34:36.459Z,17.97
2023-03-03T20:37:52.406Z,18.20
2023-03-03T20:41:07.257Z,17.87
2023-03-03T20:44:21.778Z,18.00
2023-03-03T20:47:39.724Z,17.47
2023-03-03T20:50:55.065Z,15.43
2023-03-03T20:54:06.570Z,17.27
2023-03-03T20:57:19.877Z,18.30
2023-03-03T21:00:30.212Z,16.83
2023-03-03T21:03:38.271Z,16.90
2023-03-03T21:06:41.319Z,20.00
2023-03-03T21:09:44.318Z,18.27
2023-03-03T21:12:47.337Z,19.60
2023-03-03T21:15:56.936Z,16.93
2023-03-03T21:19:03.930Z,17.97
2023-03-03T21:22:07.099Z,16.63
2023-03-03T21:25:13.971Z,17.17
2023-03-03T21:28:21.936Z,17.43
2023-03-03T21:31:25.071Z,18.03
2023-03-03T21:34:31.300Z,18.43
2023-03-03T21:37:49.187Z,17.23
2023-03-03T21:41:00.949Z,17.73
2023-03-03T21:44:34.226Z,16.73
2023-03-03T21:47:37.201Z,17.67
2023-03-03T21:50:42.684Z,18.20
2023-03-03T21:53:45.971Z,17.30
2023-03-03T21:56:50.333Z,19.33
2023-03-03T21:59:55.280Z,17.83
2023-03-03T22:02:58.416Z,17.57
2023-03-03T22:06:02.099Z,17.03
2023-03-03T22:09:05.362Z,17.70
2023-03-03T22:12:09.024Z,17.90
2023-03-03T22:15:13.422Z,17.70
2023-03-03T22:18:18.409Z,16.17
2023-03-03T22:21:21.478Z,16.23
2023-03-03T22:24:24.440Z,17.87
2023-03-03T22:27:27.494Z,17.17
2023-03-03T22:30:31.763Z,16.30
2023-03-03T22:33:35.802Z,16.27
2023-03-03T22:36:39.047Z,16.70
2023-03-03T22:39:42.050Z,17.93
2023-03-03T22:42:45.098Z,17.77
2023-03-03T22:45:50.490Z,17.53
2023-03-03T22:48:53.906Z,17.93
2023-03-03T22:51:58.722Z,18.40
2023-03-03T22:55:04.086Z,17.50
2023-03-03T22:58:09.509Z,19.40
2023-03-03T23:01:14.413Z,19.73
2023-03-03T23:04:17.559Z,21.87
2023-03-03T23:07:20.720Z,20.43
2023-03-03T23:10:23.702Z,22.17
2023-03-03T23:13:27.305Z,21.50
2023-03-03T23:16:31.915Z,23.83
2023-03-03T23:19:34.922Z,24.00
2023-03-03T23:22:37.930Z,22.50
2023-03-03T23:25:41.385Z,22.93
2023-03-03T23:28:44.906Z,24.93
2023-03-03T23:31:49.422Z,24.07
2023-03-03T23:34:53.484Z,24.37
2023-03-03T23:37:56.799Z,23.77
2023-03-03T23:40:59.760Z,24.27
2023-03-03T23:44:02.720Z,27.20
2023-03-03T23:47:08.591Z,25.17
2023-03-03T23:50:14.105Z,25.83
2023-03-03T23:53:17.303Z,25.67
2023-03-03T23:56:20.712Z,24.97
2023-03-03T23:59:23.950Z,26.17
